WXM80 ListenWXM80 Stop

You find our weather info also at:

UK Metoffice

WeatherCloud

Weather Underground

Northeastern Weather Network

AWEKAS

Citizen Weather Observer Program (CWOP)

HAMweather, WeatherForYou, PWS Weather


Weather Underground History page Text

Daily Summary for March 9, 2018 Units:  English    Metric   Both
« Previous Day
Next Day »
Daily Weekly Monthly Yearly Custom
  High: Low: Average:
Temperature: 42.8 °F 30.4 °F 36.8 °F
Dew Point: 29.9 °F 22.1 °F 27.3 °F
Humidity: 88 % 55 % 69 %
Wind Speed: 10.8 mph 0.0 mph 5.1 mph
Wind Gust: 19.6 mph - -
Wind:- - West
Pressure: 29.57 in 29.42 in -
Precipitation: 0.00 in    
Historical Graphs
 
 
Tabular Data for March 9, 2018
Time Temperature Dew Point Pressure Wind Wind Speed Wind Gust Humidity Rainfall Rate (Hourly)
00:02 35.2 °F 27.4 °F 29.42 in WNW 2.7 mph 8.1 mph 73 % 0.00 in
00:07 35.2 °F 27.4 °F 29.42 in WSW 5.7 mph 5.7 mph 73 % 0.00 in
00:13 35.1 °F 27.6 °F 29.42 in NW 6.4 mph 10.0 mph 74 % 0.00 in
00:18 35.1 °F 27.6 °F 29.42 in WNW 5.5 mph 8.0 mph 74 % 0.00 in
00:23 35.1 °F 28.0 °F 29.42 in SW 3.7 mph 8.1 mph 75 % 0.00 in
00:28 35.0 °F 28.2 °F 29.42 in WSW 5.1 mph 9.2 mph 76 % 0.00 in
00:33 34.9 °F 27.8 °F 29.42 in WSW 5.6 mph 10.4 mph 75 % 0.00 in
00:38 34.9 °F 27.8 °F 29.42 in WSW 3.1 mph 8.1 mph 75 % 0.00 in
00:43 34.8 °F 27.7 °F 29.42 in West 3.4 mph 6.9 mph 75 % 0.00 in
00:48 34.8 °F 28.0 °F 29.42 in WNW 2.4 mph 5.8 mph 76 % 0.00 in
00:53 34.7 °F 27.9 °F 29.42 in West 3.3 mph 5.8 mph 76 % 0.00 in
00:58 34.7 °F 27.6 °F 29.42 in WSW 2.9 mph 6.9 mph 75 % 0.00 in
01:03 34.6 °F 27.5 °F 29.42 in West 3.8 mph 8.1 mph 75 % 0.00 in
01:08 34.5 °F 27.1 °F 29.42 in West 2.5 mph 6.9 mph 74 % 0.00 in
01:13 34.4 °F 27.0 °F 29.42 in SW 1.2 mph 4.6 mph 74 % 0.00 in
01:18 34.4 °F 27.3 °F 29.42 in Calm   3.5 mph 75 % 0.00 in
01:20 34.4 °F 27.3 °F 29.42 in West 2.0 mph 6.9 mph 75 % 0.00 in
01:25 34.3 °F 27.5 °F 29.42 in West 1.2 mph 4.6 mph 76 % 0.00 in
01:30 34.3 °F 27.5 °F 29.42 in WSW 2.4 mph 4.6 mph 76 % 0.00 in
01:35 34.2 °F 27.4 °F 29.42 in WNW 3.0 mph 5.8 mph 76 % 0.00 in
01:40 34.2 °F 27.4 °F 29.42 in West 3.1 mph 4.6 mph 76 % 0.00 in
01:45 34.1 °F 27.3 °F 29.42 in West 1.6 mph 5.0 mph 76 % 0.00 in
01:50 34.1 °F 27.3 °F 29.42 in WSW 4.6 mph 6.9 mph 76 % 0.00 in
01:55 34.0 °F 27.5 °F 29.42 in West 5.1 mph 9.2 mph 77 % 0.00 in
02:00 33.9 °F 27.1 °F 29.42 in WSW 6.5 mph 8.1 mph 76 % 0.00 in
02:05 33.9 °F 26.8 °F 29.42 in WSW 2.2 mph 6.0 mph 75 % 0.00 in
02:10 33.8 °F 26.7 °F 29.42 in West 5.4 mph 8.1 mph 75 % 0.00 in
02:15 33.8 °F 26.4 °F 29.42 in West 2.8 mph 4.0 mph 74 % 0.00 in
02:20 33.7 °F 25.6 °F 29.42 in SW 5.5 mph 9.2 mph 72 % 0.00 in
02:25 33.7 °F 25.0 °F 29.42 in WNW 5.0 mph 9.2 mph 70 % 0.00 in
02:30 33.6 °F 24.2 °F 29.42 in WSW 5.5 mph 8.1 mph 68 % 0.00 in
02:35 33.6 °F 24.2 °F 29.42 in WNW 3.2 mph 8.1 mph 68 % 0.00 in
02:40 33.5 °F 24.8 °F 29.42 in West 3.1 mph 10.0 mph 70 % 0.00 in
02:46 33.5 °F 25.1 °F 29.42 in West 3.0 mph 9.0 mph 71 % 0.00 in
02:51 33.5 °F 25.4 °F 29.42 in West 2.0 mph 8.0 mph 72 % 0.00 in
02:56 33.5 °F 25.8 °F 29.42 in West 5.0 mph 10.0 mph 73 % 0.00 in
03:01 33.4 °F 25.7 °F 29.42 in WSW 6.2 mph 9.2 mph 73 % 0.00 in
03:06 33.4 °F 25.3 °F 29.42 in West 5.0 mph 12.0 mph 72 % 0.00 in
03:11 33.3 °F 25.2 °F 29.42 in West 7.0 mph 12.0 mph 72 % 0.00 in
03:16 33.3 °F 24.9 °F 29.42 in WSW 3.2 mph 6.9 mph 71 % 0.00 in
03:21 33.2 °F 25.2 °F 29.42 in WSW 6.0 mph 12.0 mph 72 % 0.00 in
03:26 33.2 °F 25.1 °F 29.42 in WSW 6.0 mph 12.0 mph 72 % 0.00 in
03:31 33.1 °F 24.7 °F 29.42 in WSW 8.0 mph 14.0 mph 71 % 0.00 in
03:36 33.0 °F 24.6 °F 29.42 in SW 1.0 mph 6.9 mph 71 % 0.00 in
03:41 32.9 °F 24.5 °F 29.43 in WSW 8.0 mph 14.0 mph 71 % 0.00 in
03:46 32.8 °F 24.1 °F 29.42 in WSW 2.0 mph 14.0 mph 70 % 0.00 in
03:51 32.7 °F 24.4 °F 29.42 in WSW 8.0 mph 17.0 mph 71 % 0.00 in
03:56 32.7 °F 24.3 °F 29.43 in SW 5.0 mph 17.0 mph 71 % 0.00 in
04:01 32.5 °F 24.1 °F 29.42 in SW 3.6 mph 5.0 mph 71 % 0.00 in
04:06 32.4 °F 24.0 °F 29.43 in SW 5.0 mph 8.1 mph 71 % 0.00 in
04:11 32.3 °F 23.9 °F 29.43 in SSW 4.1 mph 9.2 mph 71 % 0.00 in
04:16 32.2 °F 23.8 °F 29.43 in SW 3.2 mph 8.1 mph 71 % 0.00 in
04:21 32.1 °F 23.8 °F 29.43 in SW 1.2 mph 3.5 mph 71 % 0.00 in
04:26 31.9 °F 23.2 °F 29.43 in West 3.2 mph 5.8 mph 70 % 0.00 in
04:31 31.9 °F 22.9 °F 29.43 in WSW 4.7 mph 10.0 mph 69 % 0.00 in
04:36 31.7 °F 22.7 °F 29.43 in SSW 3.3 mph 8.1 mph 69 % 0.00 in
04:41 31.7 °F 22.7 °F 29.43 in WSW 4.9 mph 9.2 mph 69 % 0.00 in
04:46 31.6 °F 22.2 °F 29.43 in WSW 6.2 mph 11.5 mph 68 % 0.00 in
04:51 31.6 °F 22.2 °F 29.43 in WSW 4.4 mph 10.4 mph 68 % 0.00 in
04:56 31.5 °F 22.1 °F 29.43 in SW 4.4 mph 8.1 mph 68 % 0.00 in
05:01 31.5 °F 22.1 °F 29.43 in SW 3.1 mph 6.9 mph 68 % 0.00 in
05:06 31.5 °F 22.1 °F 29.43 in SW 5.2 mph 11.5 mph 68 % 0.00 in
05:11 31.4 °F 22.1 °F 29.44 in WNW 3.3 mph 7.0 mph 68 % 0.00 in
05:16 31.4 °F 22.4 °F 29.43 in SSW 5.7 mph 11.5 mph 69 % 0.00 in
05:22 31.5 °F 22.5 °F 29.44 in SW 3.9 mph 5.0 mph 69 % 0.00 in
05:27 31.5 °F 22.8 °F 29.43 in WNW 5.6 mph 5.6 mph 70 % 0.00 in
05:32 31.6 °F 23.3 °F 29.43 in WSW 3.3 mph 7.0 mph 71 % 0.00 in
05:37 31.6 °F 23.3 °F 29.43 in WSW 7.9 mph 13.8 mph 71 % 0.00 in
05:42 31.6 °F 23.6 °F 29.44 in West 4.6 mph 11.5 mph 72 % 0.00 in
05:47 31.6 °F 23.9 °F 29.43 in WNW 4.7 mph 6.9 mph 73 % 0.00 in
05:52 31.6 °F 23.9 °F 29.44 in South 5.6 mph 11.0 mph 73 % 0.00 in
05:57 31.5 °F 24.8 °F 29.44 in WSW 5.9 mph 11.5 mph 76 % 0.00 in
06:02 31.5 °F 25.1 °F 29.44 in WSW 5.9 mph 11.5 mph 77 % 0.00 in
06:07 31.4 °F 25.0 °F 29.44 in SSW 5.4 mph 8.1 mph 77 % 0.00 in
06:12 31.3 °F 25.2 °F 29.44 in West 7.0 mph 14.0 mph 78 % 0.00 in
06:17 31.1 °F 25.7 °F 29.44 in WNW 1.0 mph 4.6 mph 80 % 0.00 in
06:22 31.0 °F 25.9 °F 29.45 in West 4.8 mph 9.0 mph 81 % 0.00 in
06:27 30.9 °F 25.8 °F 29.45 in SW 6.5 mph 15.0 mph 81 % 0.00 in
06:32 30.7 °F 26.1 °F 29.45 in West 6.4 mph 11.5 mph 83 % 0.00 in
06:37 30.6 °F 26.3 °F 29.45 in SW 3.8 mph 7.0 mph 84 % 0.00 in
06:42 30.5 °F 26.5 °F 29.45 in WNW 4.9 mph 9.2 mph 85 % 0.00 in
06:47 30.5 °F 26.5 °F 29.45 in SW 3.6 mph 4.6 mph 85 % 0.00 in
06:53 30.5 °F 26.8 °F 29.45 in WSW 4.8 mph 12.7 mph 86 % 0.00 in
06:58 30.4 °F 27.0 °F 29.44 in SW 5.7 mph 11.0 mph 87 % 0.00 in
07:03 30.5 °F 27.1 °F 29.45 in West 1.0 mph 4.6 mph 87 % 0.00 in
07:08 30.5 °F 27.1 °F 29.44 in SW 3.9 mph 6.9 mph 87 % 0.00 in
07:13 30.5 °F 27.4 °F 29.45 in WSW 2.6 mph 4.6 mph 88 % 0.00 in
07:18 30.6 °F 27.5 °F 29.45 in WSW 1.2 mph 3.5 mph 88 % 0.00 in
07:23 30.6 °F 27.5 °F 29.45 in WSW 3.4 mph 6.9 mph 88 % 0.00 in
07:28 30.7 °F 27.6 °F 29.45 in SSW 2.6 mph 4.6 mph 88 % 0.00 in
07:33 30.7 °F 27.6 °F 29.45 in SW 6.2 mph 11.5 mph 88 % 0.00 in
07:38 30.8 °F 27.7 °F 29.45 in WSW 5.2 mph 10.4 mph 88 % 0.00 in
07:43 30.8 °F 27.7 °F 29.45 in WSW 3.2 mph 6.9 mph 88 % 0.00 in
07:48 30.9 °F 27.5 °F 29.45 in SW 3.1 mph 5.0 mph 87 % 0.00 in
07:53 31.1 °F 27.7 °F 29.45 in WSW 4.8 mph 4.8 mph 87 % 0.00 in
07:58 31.3 °F 27.9 °F 29.45 in WSW 4.3 mph 6.9 mph 87 % 0.00 in
08:03 31.6 °F 27.9 °F 29.44 in SSW 3.8 mph 9.2 mph 86 % 0.00 in
08:08 31.8 °F 27.8 °F 29.44 in WSW 5.7 mph 9.2 mph 85 % 0.00 in
08:13 32.0 °F 27.7 °F 29.44 in WSW 5.3 mph 10.4 mph 84 % 0.00 in
08:18 32.3 °F 28.0 °F 29.44 in WSW 8.1 mph 10.4 mph 84 % 0.00 in
08:24 32.5 °F 27.9 °F 29.44 in SW 3.8 mph 9.2 mph 83 % 0.00 in
08:29 32.7 °F 27.8 °F 29.44 in SW 4.9 mph 11.0 mph 82 % 0.00 in
08:34 32.9 °F 28.0 °F 29.45 in WSW 8.7 mph 12.7 mph 82 % 0.00 in
08:39 33.1 °F 27.9 °F 29.44 in SW 5.1 mph 10.4 mph 81 % 0.00 in
08:44 33.3 °F 28.1 °F 29.44 in WSW 4.9 mph 11.0 mph 81 % 0.00 in
08:49 33.6 °F 28.1 °F 29.44 in WSW 6.5 mph 12.7 mph 80 % 0.00 in
08:54 33.8 °F 28.3 °F 29.44 in West 6.0 mph 10.4 mph 80 % 0.00 in
08:59 34.0 °F 28.2 °F 29.45 in SW 6.5 mph 15.0 mph 79 % 0.00 in
09:04 34.2 °F 28.4 °F 29.45 in WSW 9.2 mph 12.7 mph 79 % 0.00 in
09:09 34.3 °F 28.2 °F 29.45 in WSW 4.5 mph 9.2 mph 78 % 0.00 in
09:14 34.5 °F 28.7 °F 29.45 in WSW 3.4 mph 5.8 mph 79 % 0.00 in
09:19 34.9 °F 28.7 °F 29.45 in WSW 5.5 mph 11.5 mph 78 % 0.00 in
09:24 35.1 °F 28.6 °F 29.45 in WSW 8.9 mph 9.2 mph 77 % 0.00 in
09:29 35.3 °F 28.5 °F 29.45 in West 9.9 mph 15.0 mph 76 % 0.00 in
09:30 35.3 °F 28.5 °F 29.45 in WSW 7.8 mph 15.0 mph 76 % 0.00 in
09:35 35.4 °F 28.6 °F 29.45 in SW 4.5 mph 11.0 mph 76 % 0.00 in
09:40 35.8 °F 29.3 °F 29.45 in WNW 1.8 mph 5.8 mph 77 % 0.00 in
09:45 36.1 °F 28.9 °F 29.45 in WNW 5.3 mph 9.2 mph 75 % 0.00 in
09:50 36.1 °F 28.6 °F 29.45 in WNW 7.1 mph 12.7 mph 74 % 0.00 in
09:55 36.1 °F 28.6 °F 29.45 in NW 6.5 mph 11.5 mph 74 % 0.00 in
10:00 35.9 °F 28.1 °F 29.45 in WNW 7.6 mph 11.5 mph 73 % 0.00 in
10:05 35.8 °F 28.0 °F 29.45 in WNW 3.7 mph 8.0 mph 73 % 0.00 in
10:10 35.8 °F 28.0 °F 29.45 in WSW 3.8 mph 10.4 mph 73 % 0.00 in
10:15 35.7 °F 27.9 °F 29.45 in NW 4.3 mph 9.2 mph 73 % 0.00 in
10:20 35.9 °F 28.1 °F 29.45 in WNW 3.8 mph 10.0 mph 73 % 0.00 in
10:25 36.2 °F 28.4 °F 29.45 in WSW 4.6 mph 8.1 mph 73 % 0.00 in
10:30 36.6 °F 28.4 °F 29.45 in WNW 5.2 mph 9.0 mph 72 % 0.00 in
10:35 36.9 °F 28.4 °F 29.45 in SW 5.1 mph 15.0 mph 71 % 0.00 in
10:40 36.9 °F 28.0 °F 29.45 in WNW 5.6 mph 10.4 mph 70 % 0.00 in
10:45 37.0 °F 28.1 °F 29.45 in WSW 4.9 mph 9.2 mph 70 % 0.00 in
10:50 37.1 °F 27.9 °F 29.45 in WNW 4.8 mph 10.4 mph 69 % 0.00 in
10:55 37.2 °F 28.3 °F 29.45 in West 2.0 mph 6.9 mph 70 % 0.00 in
11:00 37.5 °F 28.6 °F 29.45 in NW 2.9 mph 8.1 mph 70 % 0.00 in
11:05 37.9 °F 28.6 °F 29.45 in WNW 3.4 mph 5.8 mph 69 % 0.00 in
11:10 38.2 °F 27.8 °F 29.45 in WNW 3.0 mph 8.1 mph 66 % 0.00 in
11:16 38.6 °F 27.8 °F 29.45 in West 7.0 mph 12.7 mph 65 % 0.00 in
11:21 38.8 °F 26.9 °F 29.45 in WNW 5.0 mph 8.0 mph 62 % 0.00 in
11:26 39.0 °F 26.7 °F 29.45 in West 2.0 mph 12.0 mph 61 % 0.00 in
11:31 39.2 °F 26.9 °F 29.45 in West 5.0 mph 14.0 mph 61 % 0.00 in
11:36 39.3 °F 26.6 °F 29.45 in West 5.0 mph 17.0 mph 60 % 0.00 in
11:41 39.5 °F 26.8 °F 29.45 in West 7.0 mph 12.0 mph 60 % 0.00 in
11:46 39.9 °F 28.0 °F 29.45 in West 5.0 mph 14.0 mph 62 % 0.00 in
11:51 40.5 °F 27.7 °F 29.45 in West 6.0 mph 14.0 mph 60 % 0.00 in
11:56 40.9 °F 26.8 °F 29.45 in WSW 3.0 mph 12.0 mph 57 % 0.00 in
12:01 41.2 °F 27.1 °F 29.45 in NW 5.7 mph 10.4 mph 57 % 0.00 in
12:06 41.2 °F 27.1 °F 29.44 in WNW 6.8 mph 10.4 mph 57 % 0.00 in
12:11 41.2 °F 27.5 °F 29.44 in WSW 5.8 mph 11.5 mph 58 % 0.00 in
12:16 41.3 °F 28.0 °F 29.45 in SW 7.0 mph 16.0 mph 59 % 0.00 in
12:21 41.5 °F 28.2 °F 29.44 in NW 3.9 mph 9.0 mph 59 % 0.00 in
12:26 41.7 °F 28.4 °F 29.44 in SSW 5.4 mph 14.0 mph 59 % 0.00 in
12:31 42.0 °F 28.7 °F 29.45 in WSW 3.9 mph 12.7 mph 59 % 0.00 in
12:36 42.3 °F 28.6 °F 29.45 in SW 7.6 mph 12.7 mph 58 % 0.00 in
12:41 42.5 °F 28.8 °F 29.44 in WSW 8.9 mph 14.0 mph 58 % 0.00 in
12:46 42.7 °F 28.5 °F 29.44 in SW 6.9 mph 18.4 mph 57 % 0.00 in
12:51 42.7 °F 28.9 °F 29.44 in WNW 8.1 mph 12.7 mph 58 % 0.00 in
12:56 42.8 °F 29.0 °F 29.44 in West 6.9 mph 16.1 mph 58 % 0.00 in
13:01 42.8 °F 29.0 °F 29.44 in WNW 9.7 mph 17.3 mph 58 % 0.00 in
13:06 42.7 °F 29.4 °F 29.44 in SW 6.0 mph 17.0 mph 59 % 0.00 in
13:11 42.4 °F 29.5 °F 29.44 in West 4.5 mph 8.1 mph 60 % 0.00 in
13:16 42.3 °F 29.4 °F 29.44 in NW 2.5 mph 10.4 mph 60 % 0.00 in
13:21 42.2 °F 28.9 °F 29.44 in West 6.7 mph 17.3 mph 59 % 0.00 in
13:26 42.0 °F 28.7 °F 29.44 in SW 6.0 mph 14.0 mph 59 % 0.00 in
13:31 41.7 °F 28.8 °F 29.44 in NW 4.7 mph 11.5 mph 60 % 0.00 in
13:36 41.5 °F 29.0 °F 29.44 in SSW 6.0 mph 11.5 mph 61 % 0.00 in
13:41 41.4 °F 28.9 °F 29.44 in West 7.2 mph 10.4 mph 61 % 0.00 in
13:46 41.4 °F 29.3 °F 29.44 in WSW 8.5 mph 19.6 mph 62 % 0.00 in
13:51 41.6 °F 29.5 °F 29.44 in SSW 5.8 mph 11.0 mph 62 % 0.00 in
13:57 42.0 °F 29.9 °F 29.44 in West 7.3 mph 10.4 mph 62 % 0.00 in
14:02 42.4 °F 29.9 °F 29.44 in WNW 4.6 mph 6.9 mph 61 % 0.00 in
14:07 42.8 °F 29.0 °F 29.44 in WNW 8.6 mph 12.7 mph 58 % 0.00 in
14:12 42.8 °F 29.5 °F 29.44 in West 4.5 mph 12.7 mph 59 % 0.00 in
14:17 42.6 °F 28.8 °F 29.44 in West 8.3 mph 16.1 mph 58 % 0.00 in
14:22 42.2 °F 28.5 °F 29.44 in WNW 7.8 mph 12.7 mph 58 % 0.00 in
14:27 42.1 °F 28.8 °F 29.44 in WNW 6.4 mph 11.5 mph 59 % 0.00 in
14:32 42.3 °F 29.0 °F 29.44 in NW 5.4 mph 11.5 mph 59 % 0.00 in
14:37 42.5 °F 29.2 °F 29.44 in WSW 7.2 mph 12.7 mph 59 % 0.00 in
14:42 42.5 °F 28.3 °F 29.44 in WNW 6.4 mph 13.8 mph 57 % 0.00 in
14:47 42.5 °F 28.3 °F 29.45 in West 8.5 mph 17.3 mph 57 % 0.00 in
14:52 42.1 °F 27.9 °F 29.45 in WSW 10.8 mph 18.0 mph 57 % 0.00 in
14:57 41.8 °F 28.5 °F 29.45 in WSW 6.9 mph 12.7 mph 59 % 0.00 in
15:02 41.7 °F 28.8 °F 29.45 in WSW 4.3 mph 8.0 mph 60 % 0.00 in
15:07 41.8 °F 28.1 °F 29.45 in NW 6.6 mph 16.1 mph 58 % 0.00 in
15:12 41.8 °F 28.5 °F 29.46 in West 9.5 mph 12.7 mph 59 % 0.00 in
15:17 41.8 °F 28.5 °F 29.46 in WSW 3.9 mph 8.1 mph 59 % 0.00 in
15:22 42.0 °F 28.7 °F 29.46 in West 7.3 mph 14.0 mph 59 % 0.00 in
15:27 42.2 °F 28.5 °F 29.46 in West 5.6 mph 11.5 mph 58 % 0.00 in
15:32 42.1 °F 27.9 °F 29.46 in WSW 7.8 mph 10.4 mph 57 % 0.00 in
15:37 42.0 °F 28.3 °F 29.46 in West 3.7 mph 8.1 mph 58 % 0.00 in
15:42 41.9 °F 28.6 °F 29.46 in West 4.3 mph 5.8 mph 59 % 0.00 in
15:48 41.9 °F 28.2 °F 29.46 in WSW 4.7 mph 11.5 mph 58 % 0.00 in
15:53 41.9 °F 27.8 °F 29.46 in WNW 7.7 mph 11.5 mph 57 % 0.00 in
15:58 42.0 °F 28.3 °F 29.46 in West 7.9 mph 13.0 mph 58 % 0.00 in
16:03 42.0 °F 28.3 °F 29.46 in West 6.3 mph 10.4 mph 58 % 0.00 in
16:08 42.0 °F 27.4 °F 29.46 in WNW 7.3 mph 10.4 mph 56 % 0.00 in
16:13 41.9 °F 27.3 °F 29.47 in West 5.2 mph 12.7 mph 56 % 0.00 in
16:18 41.9 °F 26.9 °F 29.47 in SW 7.2 mph 16.0 mph 55 % 0.00 in
16:23 41.8 °F 27.2 °F 29.47 in WSW 4.9 mph 9.0 mph 56 % 0.00 in
16:28 41.9 °F 27.8 °F 29.47 in SW 1.9 mph 5.8 mph 57 % 0.00 in
16:33 41.8 °F 28.1 °F 29.47 in WSW 9.0 mph 12.7 mph 58 % 0.00 in
16:38 41.8 °F 28.1 °F 29.47 in WSW 7.0 mph 16.1 mph 58 % 0.00 in
16:43 41.7 °F 28.0 °F 29.48 in West 4.2 mph 8.0 mph 58 % 0.00 in
16:48 41.7 °F 28.4 °F 29.47 in WNW 6.4 mph 10.4 mph 59 % 0.00 in
16:53 41.7 °F 28.4 °F 29.47 in SW 2.4 mph 7.0 mph 59 % 0.00 in
16:59 41.8 °F 28.5 °F 29.48 in SW 8.8 mph 13.8 mph 59 % 0.00 in
17:04 41.6 °F 28.3 °F 29.48 in West 5.7 mph 8.1 mph 59 % 0.00 in
17:09 41.5 °F 27.4 °F 29.48 in West 5.8 mph 12.7 mph 57 % 0.00 in
17:14 41.4 °F 27.7 °F 29.48 in WSW 5.7 mph 12.7 mph 58 % 0.00 in
17:19 41.4 °F 27.7 °F 29.48 in West 3.8 mph 9.2 mph 58 % 0.00 in
17:24 41.4 °F 27.7 °F 29.48 in West 5.1 mph 11.5 mph 58 % 0.00 in
17:29 41.4 °F 28.1 °F 29.49 in West 4.6 mph 10.4 mph 59 % 0.00 in
17:34 41.4 °F 28.1 °F 29.49 in WSW 6.6 mph 11.5 mph 59 % 0.00 in
17:39 41.3 °F 28.0 °F 29.49 in West 6.8 mph 10.4 mph 59 % 0.00 in
17:44 41.2 °F 27.9 °F 29.49 in WSW 8.5 mph 11.5 mph 59 % 0.00 in
17:49 41.1 °F 27.9 °F 29.49 in WSW 6.6 mph 11.0 mph 59 % 0.00 in
17:54 41.0 °F 28.2 °F 29.50 in WSW 5.9 mph 10.4 mph 60 % 0.00 in
17:59 40.8 °F 28.0 °F 29.50 in SSW 7.4 mph 11.5 mph 60 % 0.00 in
18:04 40.7 °F 28.3 °F 29.50 in West 6.6 mph 13.8 mph 61 % 0.00 in
18:09 40.6 °F 28.6 °F 29.50 in West 4.2 mph 16.1 mph 62 % 0.00 in
18:14 40.4 °F 28.0 °F 29.50 in NW 6.9 mph 17.3 mph 61 % 0.00 in
18:19 40.4 °F 28.4 °F 29.50 in West 6.7 mph 11.5 mph 62 % 0.00 in
18:24 40.2 °F 28.6 °F 29.51 in SW 8.2 mph 10.4 mph 63 % 0.00 in
18:30 40.1 °F 28.5 °F 29.51 in SW 5.5 mph 8.1 mph 63 % 0.00 in
18:35 40.1 °F 28.5 °F 29.51 in WNW 8.5 mph 9.2 mph 63 % 0.00 in
18:40 40.0 °F 28.4 °F 29.51 in WNW 7.9 mph 12.0 mph 63 % 0.00 in
18:45 40.0 °F 28.8 °F 29.52 in West 5.2 mph 13.8 mph 64 % 0.00 in
18:50 40.0 °F 28.8 °F 29.52 in West 3.8 mph 9.2 mph 64 % 0.00 in
18:55 40.0 °F 28.8 °F 29.52 in West 6.5 mph 11.5 mph 64 % 0.00 in
19:00 39.9 °F 29.1 °F 29.52 in WNW 4.4 mph 10.4 mph 65 % 0.00 in
19:05 39.8 °F 29.4 °F 29.52 in West 4.8 mph 9.2 mph 66 % 0.00 in
19:10 39.7 °F 29.3 °F 29.53 in West 7.7 mph 13.8 mph 66 % 0.00 in
19:15 39.6 °F 29.2 °F 29.53 in WNW 6.0 mph 11.5 mph 66 % 0.00 in
19:20 39.5 °F 29.1 °F 29.53 in WNW 7.6 mph 11.5 mph 66 % 0.00 in
19:25 39.4 °F 29.0 °F 29.53 in West 6.7 mph 10.4 mph 66 % 0.00 in
19:30 39.3 °F 29.3 °F 29.53 in NW 3.1 mph 10.4 mph 67 % 0.00 in
19:35 39.3 °F 29.3 °F 29.54 in WSW 2.5 mph 6.9 mph 67 % 0.00 in
19:40 39.2 °F 29.5 °F 29.54 in NNW 3.5 mph 5.8 mph 68 % 0.00 in
19:45 39.1 °F 29.4 °F 29.54 in WNW 1.3 mph 6.9 mph 68 % 0.00 in
19:51 39.0 °F 29.3 °F 29.55 in WNW 4.2 mph 9.2 mph 68 % 0.00 in
19:56 38.9 °F 29.3 °F 29.55 in West 5.0 mph 9.0 mph 68 % 0.00 in
20:01 38.9 °F 29.2 °F 29.55 in NW 2.8 mph 8.0 mph 68 % 0.00 in
20:06 38.8 °F 29.1 °F 29.55 in WNW 5.0 mph 12.0 mph 68 % 0.00 in
20:11 38.8 °F 29.5 °F 29.55 in West 3.0 mph 10.0 mph 69 % 0.00 in
20:16 38.7 °F 29.4 °F 29.55 in West 3.0 mph 9.0 mph 69 % 0.00 in
20:21 38.7 °F 29.0 °F 29.55 in WSW 5.0 mph 10.0 mph 68 % 0.00 in
20:26 38.6 °F 28.9 °F 29.55 in WSW 2.0 mph 10.0 mph 68 % 0.00 in
20:31 38.6 °F 29.3 °F 29.55 in WSW 2.0 mph 7.0 mph 69 % 0.00 in
20:36 38.5 °F 29.2 °F 29.55 in West 5.0 mph 10.0 mph 69 % 0.00 in
20:41 38.4 °F 28.4 °F 29.56 in WSW 6.0 mph 16.0 mph 67 % 0.00 in
20:46 38.3 °F 28.0 °F 29.56 in WSW 5.0 mph 12.0 mph 66 % 0.00 in
20:51 38.3 °F 27.9 °F 29.55 in West 6.0 mph 9.0 mph 66 % 0.00 in
20:56 38.2 °F 27.8 °F 29.56 in WSW 8.0 mph 14.0 mph 66 % 0.00 in
21:01 38.1 °F 27.7 °F 29.56 in WSW 2.8 mph 13.0 mph 66 % 0.00 in
21:06 38.1 °F 27.7 °F 29.56 in West 2.0 mph 14.0 mph 66 % 0.00 in
21:11 38.0 °F 27.6 °F 29.56 in WSW 5.0 mph 12.0 mph 66 % 0.00 in
21:15 37.9 °F 27.5 °F 29.56 in WSW 1.0 mph 12.0 mph 66 % 0.00 in
21:21 37.8 °F 27.5 °F 29.56 in WSW 1.0 mph 12.0 mph 66 % 0.00 in
21:26 37.7 °F 27.4 °F 29.56 in WSW 3.0 mph 12.0 mph 66 % 0.00 in
21:31 37.6 °F 27.3 °F 29.56 in SSW 1.7 mph 2.0 mph 66 % 0.00 in
21:36 37.4 °F 27.1 °F 29.56 in SW 2.9 mph 10.4 mph 66 % 0.00 in
21:41 37.3 °F 27.0 °F 29.56 in WSW 3.6 mph 8.1 mph 66 % 0.00 in
21:46 37.2 °F 26.9 °F 29.56 in WSW 5.5 mph 10.4 mph 66 % 0.00 in
21:51 37.0 °F 26.7 °F 29.56 in West 5.4 mph 11.5 mph 66 % 0.00 in
21:56 37.0 °F 26.7 °F 29.56 in WSW 6.6 mph 11.5 mph 66 % 0.00 in
22:01 36.9 °F 26.6 °F 29.56 in WSW 5.8 mph 10.4 mph 66 % 0.00 in
22:06 36.9 °F 27.0 °F 29.56 in West 5.2 mph 9.2 mph 67 % 0.00 in
22:11 36.8 °F 26.9 °F 29.56 in WNW 7.5 mph 13.8 mph 67 % 0.00 in
22:16 36.8 °F 26.5 °F 29.56 in SW 7.6 mph 9.2 mph 66 % 0.00 in
22:21 36.8 °F 26.9 °F 29.56 in WSW 7.4 mph 12.7 mph 67 % 0.00 in
22:26 36.8 °F 26.9 °F 29.56 in WSW 7.0 mph 10.4 mph 67 % 0.00 in
22:31 36.7 °F 26.8 °F 29.57 in WNW 5.1 mph 11.5 mph 67 % 0.00 in
22:36 36.6 °F 26.7 °F 29.57 in West 4.1 mph 10.4 mph 67 % 0.00 in
22:41 36.6 °F 27.0 °F 29.57 in SW 7.7 mph 11.5 mph 68 % 0.00 in
22:46 36.5 °F 26.6 °F 29.57 in WSW 3.4 mph 6.9 mph 67 % 0.00 in
22:51 36.4 °F 26.5 °F 29.57 in SW 4.1 mph 8.0 mph 67 % 0.00 in
22:56 36.4 °F 26.5 °F 29.57 in West 3.8 mph 7.0 mph 67 % 0.00 in
23:01 36.2 °F 26.3 °F 29.56 in WSW 3.7 mph 8.0 mph 67 % 0.00 in
23:06 36.2 °F 26.6 °F 29.57 in WSW 8.3 mph 11.5 mph 68 % 0.00 in
23:11 36.1 °F 26.6 °F 29.57 in WSW 4.4 mph 10.4 mph 68 % 0.00 in
23:17 36.1 °F 26.2 °F 29.57 in WSW 2.2 mph 10.0 mph 67 % 0.00 in
23:22 36.0 °F 26.5 °F 29.56 in WSW 8.7 mph 13.8 mph 68 % 0.00 in
23:27 35.9 °F 26.4 °F 29.57 in WSW 3.4 mph 15.0 mph 68 % 0.00 in
23:32 35.9 °F 26.4 °F 29.57 in SW 7.0 mph 11.5 mph 68 % 0.00 in
23:37 35.8 °F 26.6 °F 29.57 in West 2.5 mph 8.1 mph 69 % 0.00 in
23:42 35.8 °F 26.6 °F 29.57 in West 4.6 mph 8.1 mph 69 % 0.00 in
23:47 35.7 °F 26.5 °F 29.57 in West 9.1 mph 15.0 mph 69 % 0.00 in
23:52 35.7 °F 26.5 °F 29.56 in West 6.2 mph 11.5 mph 69 % 0.00 in
23:57 35.6 °F 26.8 °F 29.57 in WSW 7.4 mph 12.7 mph 70 % 0.00 in
Crab Meadow Weather
Compliments of Weather Underground - 3 mb

Script developed by  Jim McMurry - jmcmurry@mwt.net Adapted for the template by  Wim van der Kuil - Leuven-Template.eu

Weather Terms: Tornado Watch - Conditions are favorable for the development of severe thunderstorms and tornadoes in and close to the watch area. These watches are issued for large areas by the Storm Prediction Center in Norman, Oklahoma, and are usually valid for four to six hours.